Time;durP1;ratioP1;P1;durP2;ratioP2;P2;SDS_P1;SDS_P2;PMS_P1;PMS_P2;Temp;Humidity;BMP_temperature;BMP_pressure;BME280_temperature;BME280_humidity;BME280_pressure;Samples;Min_cycle;Max_cycle;Signal;HPM_P1;HPM_P2
2023/07/28 00:00:40;;;;;;;23.50;14.20;;;;;;;;;;5005570;28;20033;-84
2023/07/28 00:03:05;;;;;;;28.33;15.68;;;18.10;99.90;;;;;;4987562;28;20132;-84
2023/07/28 00:05:31;;;;;;;26.83;15.73;;;18.20;99.90;;;;;;4985777;28;20034;-84
2023/07/28 00:07:56;;;;;;;26.52;15.27;;;18.30;99.90;;;;;;5016101;28;20041;-84
2023/07/28 00:10:22;;;;;;;27.42;15.55;;;18.10;99.90;;;;;;5020607;28;20651;-84
2023/07/28 00:12:48;;;;;;;37.13;16.13;;;;;;;;;;5024833;28;20491;-84
2023/07/28 00:15:14;;;;;;;30.30;16.38;;;;;;;;;;5023865;28;20047;-84
2023/07/28 00:17:42;;;;;;;31.50;15.20;;;;;;;;;;5003565;28;20049;-84
2023/07/28 00:20:08;;;;;;;31.90;16.02;;;18.10;99.90;;;;;;5005562;28;20083;-84
2023/07/28 00:22:34;;;;;;;26.77;15.70;;;;;;;;;;5002732;28;20045;-84
2023/07/28 00:25:00;;;;;;;35.40;14.40;;;18.20;99.90;;;;;;5009919;28;20056;-84
2023/07/28 00:27:25;;;;;;;24.88;13.10;;;18.10;99.90;;;;;;5000873;28;20067;-84
2023/07/28 00:29:51;;;;;;;27.40;13.13;;;18.10;99.90;;;;;;4982177;28;20080;-84
2023/07/28 00:32:16;;;;;;;30.10;14.63;;;18.10;99.90;;;;;;4984538;28;20065;-84
2023/07/28 00:34:42;;;;;;;29.88;13.43;;;18.10;99.90;;;;;;5025036;28;20041;-84
2023/07/28 00:37:08;;;;;;;24.48;12.68;;;18.20;99.90;;;;;;5006969;28;20041;-84
2023/07/28 00:39:33;;;;;;;24.42;13.27;;;;;;;;;;4992429;28;20396;-84
2023/07/28 00:41:59;;;;;;;26.05;13.27;;;;;;;;;;5018538;28;20038;-84
2023/07/28 00:44:25;;;;;;;18.20;11.77;;;18.20;99.90;;;;;;5026340;28;20115;-84
2023/07/28 00:46:51;;;;;;;24.10;11.18;;;18.10;99.90;;;;;;4985284;28;20042;-84
2023/07/28 00:49:16;;;;;;;21.67;10.40;;;18.10;99.90;;;;;;5026235;28;20172;-84
2023/07/28 00:51:42;;;;;;;26.38;10.52;;;18.00;99.90;;;;;;5008638;28;20091;-84
2023/07/28 00:54:08;;;;;;;24.67;11.40;;;18.10;99.90;;;;;;4985495;28;20045;-84
2023/07/28 00:56:33;;;;;;;24.38;12.50;;;18.40;99.90;;;;;;5001699;28;20037;-84
2023/07/28 00:58:59;;;;;;;30.13;13.52;;;;;;;;;;4994160;28;20652;-84
2023/07/28 01:01:27;;;;;;;22.40;11.90;;;;;;;;;;5021604;28;20631;-84
2023/07/28 01:03:53;;;;;;;27.40;13.25;;;;;;;;;;5009084;28;20064;-84
2023/07/28 01:06:24;;;;;;;30.77;12.30;;;18.00;99.90;;;;;;5027704;28;20038;-84
2023/07/28 01:09:09;;;;;;;26.92;13.65;;;18.00;99.90;;;;;;5027664;28;20099;-84
2023/07/28 01:11:35;;;;;;;31.80;13.30;;;;;;;;;;5003618;28;20048;-84
2023/07/28 01:14:01;;;;;;;30.48;12.88;;;17.90;99.90;;;;;;4984289;28;20044;-84
2023/07/28 01:16:27;;;;;;;31.27;14.30;;;;;;;;;;5010533;28;20037;-84
2023/07/28 01:18:52;;;;;;;27.92;14.18;;;18.00;99.90;;;;;;5028602;28;20037;-84
2023/07/28 01:21:22;;;;;;;29.35;14.82;;;18.20;99.90;;;;;;4996180;28;20041;-84
2023/07/28 01:24:20;;;;;;;29.98;15.07;;;18.20;99.90;;;;;;5010288;28;20048;-84
2023/07/28 01:26:47;;;;;;;33.17;14.15;;;18.10;99.90;;;;;;5014820;28;20500;-84
2023/07/28 01:29:15;;;;;;;32.58;14.88;;;18.20;99.90;;;;;;5005384;28;20137;-84
2023/07/28 01:31:41;;;;;;;32.50;14.68;;;;;;;;;;5022936;28;20125;-84
2023/07/28 01:34:07;;;;;;;33.72;14.13;;;;;;;;;;5009942;28;20419;-84
2023/07/28 01:36:32;;;;;;;34.03;14.18;;;18.10;99.90;;;;;;5007179;28;20499;-84
2023/07/28 01:38:58;;;;;;;32.05;14.90;;;18.10;99.90;;;;;;5008912;28;20052;-84
2023/07/28 01:41:23;;;;;;;31.83;13.32;;;18.10;99.90;;;;;;5007742;28;20095;-84
2023/07/28 01:43:49;;;;;;;28.10;14.20;;;18.10;99.90;;;;;;5010364;28;20415;-84
2023/07/28 01:46:15;;;;;;;31.08;14.07;;;18.20;99.90;;;;;;5002231;28;20044;-84
2023/07/28 01:48:41;;;;;;;24.08;13.85;;;;;;;;;;4999185;28;20061;-84
2023/07/28 01:51:07;;;;;;;27.33;12.52;;;;;;;;;;5010226;28;20487;-84
2023/07/28 01:53:32;;;;;;;27.52;13.75;;;18.10;99.90;;;;;;5025196;28;20061;-84
2023/07/28 01:55:58;;;;;;;30.52;13.32;;;18.20;99.90;;;;;;5008586;28;20033;-84
2023/07/28 01:58:24;;;;;;;27.13;12.43;;;;;;;;;;5004253;28;20049;-84
2023/07/28 02:00:49;;;;;;;30.02;12.50;;;18.10;99.90;;;;;;5008483;28;20052;-84
2023/07/28 02:03:15;;;;;;;28.73;13.00;;;18.10;99.90;;;;;;5007963;28;20033;-84
2023/07/28 02:05:41;;;;;;;35.85;12.48;;;;;;;;;;5000183;28;20418;-84
2023/07/28 02:08:06;;;;;;;25.90;11.63;;;18.10;99.90;;;;;;5021235;28;20037;-84
2023/07/28 02:10:32;;;;;;;29.13;13.23;;;;;;;;;;5027590;28;20073;-84
2023/07/28 02:12:58;;;;;;;22.27;11.80;;;18.10;99.90;;;;;;5006242;28;20041;-84
2023/07/28 02:15:23;;;;;;;28.50;11.20;;;18.20;99.90;;;;;;4992217;28;20114;-84
2023/07/28 02:17:49;;;;;;;28.50;11.77;;;18.30;99.90;;;;;;4990010;28;20120;-84
2023/07/28 02:20:15;;;;;;;27.63;12.05;;;;;;;;;;4991803;28;20497;-84
2023/07/28 02:22:42;;;;;;;28.27;11.60;;;18.10;99.90;;;;;;5003610;28;20072;-84
2023/07/28 02:25:08;;;;;;;23.48;11.70;;;;;;;;;;5007846;28;20115;-84
2023/07/28 02:27:33;;;;;;;23.05;10.77;;;18.00;99.90;;;;;;5003030;28;20495;-84
2023/07/28 02:29:59;;;;;;;23.55;11.07;;;18.10;99.90;;;;;;4993166;28;20037;-84
2023/07/28 02:32:28;;;;;;;25.35;10.73;;;18.30;99.90;;;;;;5018178;28;20411;-84
2023/07/28 02:34:54;;;;;;;26.05;12.40;;;18.10;99.90;;;;;;5006221;28;20044;-84
2023/07/28 02:37:20;;;;;;;17.65;10.52;;;18.20;99.90;;;;;;5018999;28;20037;-84
2023/07/28 02:39:46;;;;;;;22.13;10.98;;;18.10;99.90;;;;;;5006014;28;20139;-84
2023/07/28 02:42:12;;;;;;;22.42;11.48;;;;;;;;;;5006508;28;20562;-84
2023/07/28 02:44:38;;;;;;;29.05;11.68;;;;;;;;;;5006480;28;20095;-84
2023/07/28 02:47:04;;;;;;;28.38;10.10;;;18.00;99.90;;;;;;5023357;28;20513;-84
2023/07/28 02:49:30;;;;;;;28.77;10.70;;;18.10;99.90;;;;;;5023332;28;20033;-84
2023/07/28 02:51:56;;;;;;;25.27;10.38;;;18.10;99.90;;;;;;4986519;28;20522;-84
2023/07/28 02:54:23;;;;;;;25.00;10.57;;;18.20;99.90;;;;;;5006771;28;20349;-84
2023/07/28 02:56:49;;;;;;;28.10;10.52;;;18.20;99.90;;;;;;5023050;28;20511;-84
2023/07/28 02:59:15;;;;;;;23.05;10.10;;;18.10;99.90;;;;;;5006855;28;20152;-84
2023/07/28 03:01:41;;;;;;;21.08;10.02;;;18.00;99.90;;;;;;4990019;28;20041;-84
2023/07/28 03:04:06;;;;;;;23.88;10.68;;;18.10;99.90;;;;;;4993224;28;20041;-84
2023/07/28 03:06:32;;;;;;;20.45;9.95;;;;;;;;;;5009992;28;20049;-84
2023/07/28 03:09:01;;;;;;;19.95;9.45;;;17.90;99.90;;;;;;5004772;28;20048;-84
2023/07/28 03:11:26;;;;;;;24.60;9.93;;;18.20;99.90;;;;;;5025035;28;20030;-84
2023/07/28 03:13:52;;;;;;;28.35;10.88;;;;;;;;;;5005482;28;20100;-84
2023/07/28 03:16:18;;;;;;;25.40;12.45;;;;;;;;;;5006560;28;20506;-84
2023/07/28 03:18:44;;;;;;;25.10;10.77;;;;;;;;;;5023230;28;20045;-84
2023/07/28 03:21:10;;;;;;;22.42;11.05;;;18.30;99.90;;;;;;5006735;28;20052;-84
2023/07/28 03:23:36;;;;;;;22.08;11.52;;;18.20;99.90;;;;;;5005546;28;20519;-84
2023/07/28 03:26:01;;;;;;;24.10;12.15;;;18.00;99.90;;;;;;5006783;28;20498;-84
2023/07/28 03:28:27;;;;;;;25.83;11.93;;;18.10;99.90;;;;;;4996648;28;20044;-84
2023/07/28 03:30:52;;;;;;;25.63;12.32;;;18.00;99.90;;;;;;4991761;28;20048;-84
2023/07/28 03:33:18;;;;;;;28.48;11.75;;;;;;;;;;5003212;28;20103;-84
2023/07/28 03:35:44;;;;;;;33.10;12.43;;;;;;;;;;5006823;28;20041;-84
2023/07/28 03:38:10;;;;;;;27.75;11.70;;;18.00;99.90;;;;;;4989649;28;20416;-84
2023/07/28 03:40:35;;;;;;;28.42;11.93;;;18.20;99.90;;;;;;4994663;28;20101;-84
2023/07/28 03:43:02;;;;;;;29.02;10.55;;;18.10;99.90;;;;;;5006347;28;20418;-84
2023/07/28 03:45:28;;;;;;;24.65;11.55;;;;;;;;;;5003819;28;20128;-84
2023/07/28 03:47:53;;;;;;;23.00;11.95;;;18.10;99.90;;;;;;5008319;28;20506;-84
2023/07/28 03:50:19;;;;;;;25.75;11.45;;;;;;;;;;5006765;28;20041;-84
2023/07/28 03:52:45;;;;;;;25.60;12.00;;;18.00;99.90;;;;;;5006514;28;20045;-84
2023/07/28 03:55:10;;;;;;;24.23;11.32;;;18.00;99.90;;;;;;5024137;28;20510;-84
2023/07/28 03:57:36;;;;;;;27.60;11.10;;;18.10;99.90;;;;;;5018363;28;20577;-84
2023/07/28 04:00:02;;;;;;;26.20;11.48;;;17.90;99.90;;;;;;4986442;28;20054;-84
2023/07/28 04:02:27;;;;;;;22.83;11.10;;;18.20;99.90;;;;;;5020118;28;20045;-84
2023/07/28 04:04:54;;;;;;;23.08;10.95;;;18.00;99.90;;;;;;5024417;28;20079;-84
2023/07/28 04:07:20;;;;;;;30.38;11.52;;;;;;;;;;5009303;28;20409;-84
2023/07/28 04:09:46;;;;;;;20.52;10.75;;;18.00;99.90;;;;;;5010496;28;20037;-84
2023/07/28 04:12:12;;;;;;;26.90;12.13;;;18.00;99.90;;;;;;5011090;28;20030;-84
2023/07/28 04:14:38;;;;;;;29.48;11.60;;;;;;;;;;5008188;28;20037;-84
2023/07/28 04:17:04;;;;;;;27.92;11.85;;;18.10;99.90;;;;;;5026558;28;20041;-84
2023/07/28 04:19:29;;;;;;;31.13;11.00;;;18.40;99.90;;;;;;5005196;28;20045;-84
2023/07/28 04:21:58;;;;;;;30.50;10.85;;;18.10;99.90;;;;;;5009752;28;20056;-84
2023/07/28 04:24:25;;;;;;;22.20;10.85;;;;;;;;;;5009374;28;20136;-84
2023/07/28 04:26:51;;;;;;;24.77;9.85;;;;;;;;;;5027116;28;20059;-84
2023/07/28 04:29:17;;;;;;;25.90;11.18;;;18.20;99.90;;;;;;5008764;28;20041;-84
2023/07/28 04:31:42;;;;;;;21.67;11.30;;;18.10;99.90;;;;;;5007345;28;20422;-84
2023/07/28 04:34:08;;;;;;;24.70;11.15;;;18.20;99.90;;;;;;5007052;28;20052;-84
2023/07/28 04:36:34;;;;;;;25.42;11.05;;;;;;;;;;5025813;28;20043;-84
2023/07/28 04:39:00;;;;;;;22.75;9.60;;;;;;;;;;5024531;28;20459;-84
2023/07/28 04:41:26;;;;;;;24.85;11.20;;;;;;;;;;5006015;28;20049;-84
2023/07/28 04:43:52;;;;;;;22.35;9.00;;;18.20;99.90;;;;;;5023339;28;20042;-84
2023/07/28 04:46:17;;;;;;;24.38;10.38;;;18.20;99.90;;;;;;4990545;28;20179;-84
2023/07/28 04:48:43;;;;;;;27.45;12.65;;;;;;;;;;4987986;28;20045;-84
2023/07/28 04:51:09;;;;;;;24.60;10.23;;;;;;;;;;4994113;28;20043;-84
2023/07/28 04:53:35;;;;;;;25.02;10.88;;;18.20;99.90;;;;;;5008480;28;20046;-84
2023/07/28 04:56:01;;;;;;;28.08;10.73;;;;;;;;;;5014319;28;20115;-84
2023/07/28 04:58:27;;;;;;;20.52;10.02;;;;;;;;;;4999352;28;20056;-84
2023/07/28 05:00:52;;;;;;;24.08;10.68;;;18.30;99.90;;;;;;4990168;28;20037;-84
2023/07/28 05:03:18;;;;;;;24.65;10.63;;;18.20;99.90;;;;;;5027592;28;20500;-84
2023/07/28 05:05:44;;;;;;;20.35;10.38;;;;;;;;;;5005142;28;20077;-84
2023/07/28 05:08:10;;;;;;;26.33;11.07;;;18.30;99.90;;;;;;4993373;28;20049;-84
2023/07/28 05:10:36;;;;;;;20.08;11.23;;;;;;;;;;5008674;28;20049;-84
2023/07/28 05:13:05;;;;;;;21.95;10.55;;;;;;;;;;5003045;28;20041;-84
2023/07/28 05:15:30;;;;;;;20.15;10.82;;;18.20;99.90;;;;;;5007610;28;20042;-84
2023/07/28 05:17:56;;;;;;;16.48;10.60;;;;;;;;;;5004812;28;20038;-84
2023/07/28 05:20:22;;;;;;;22.98;10.35;;;18.30;99.90;;;;;;5002992;28;20716;-84
2023/07/28 05:22:48;;;;;;;23.60;10.70;;;18.30;99.90;;;;;;5005061;28;20049;-84
2023/07/28 05:25:13;;;;;;;19.45;9.60;;;18.30;99.90;;;;;;5005861;28;20045;-84
2023/07/28 05:27:40;;;;;;;21.40;10.32;;;18.30;99.90;;;;;;4991303;28;20050;-84
2023/07/28 05:30:07;;;;;;;16.38;8.95;;;18.40;99.90;;;;;;5007088;28;20046;-84
2023/07/28 05:32:32;;;;;;;18.02;8.88;;;18.60;99.90;;;;;;5004434;28;20045;-84
2023/07/28 05:34:58;;;;;;;27.77;9.90;;;;;;;;;;5001070;28;20091;-84
2023/07/28 05:37:24;;;;;;;21.83;10.43;;;18.40;99.90;;;;;;4993470;28;20077;-84
2023/07/28 05:39:50;;;;;;;20.17;9.30;;;18.40;99.90;;;;;;5007096;28;20472;-84
2023/07/28 05:42:15;;;;;;;20.08;9.45;;;18.50;99.90;;;;;;5008660;28;20065;-84
2023/07/28 05:44:41;;;;;;;26.63;10.25;;;18.50;99.90;;;;;;5007031;28;20053;-84
2023/07/28 05:47:07;;;;;;;19.38;9.52;;;;;;;;;;5026765;28;20356;-84
2023/07/28 05:49:33;;;;;;;20.75;9.20;;;18.50;99.90;;;;;;5003727;28;20534;-84
2023/07/28 05:51:58;;;;;;;23.30;9.82;;;18.60;99.90;;;;;;5020198;28;20065;-84
2023/07/28 05:54:24;;;;;;;23.60;9.02;;;18.60;99.90;;;;;;5007650;28;20086;-84
2023/07/28 05:56:49;;;;;;;20.80;9.45;;;18.60;99.90;;;;;;5026344;28;20179;-84
2023/07/28 05:59:15;;;;;;;17.83;9.75;;;18.70;99.90;;;;;;5005743;28;20071;-84
2023/07/28 06:01:41;;;;;;;22.77;9.90;;;18.80;99.90;;;;;;4991108;28;20041;-84
2023/07/28 06:04:06;;;;;;;20.05;9.27;;;18.60;99.90;;;;;;5023230;28;20044;-84
2023/07/28 06:06:32;;;;;;;24.98;9.38;;;18.50;99.90;;;;;;5008101;28;20057;-84
2023/07/28 06:08:58;;;;;;;20.75;9.30;;;;;;;;;;5007722;28;20588;-84
2023/07/28 06:11:24;;;;;;;13.48;8.38;;;18.80;99.90;;;;;;4991344;28;20052;-84
2023/07/28 06:13:49;;;;;;;14.10;8.45;;;18.60;99.90;;;;;;5026159;28;20041;-84
2023/07/28 06:16:15;;;;;;;14.80;7.90;;;;;;;;;;4991046;28;20091;-84
2023/07/28 06:18:41;;;;;;;16.30;7.85;;;18.70;99.90;;;;;;5004112;28;20046;-84
2023/07/28 06:21:07;;;;;;;12.52;7.03;;;;;;;;;;5020056;28;20046;-84
2023/07/28 06:23:33;;;;;;;13.18;7.70;;;;;;;;;;4999184;28;20049;-84
2023/07/28 06:25:59;;;;;;;10.80;6.75;;;18.70;99.90;;;;;;5007488;28;20033;-84
2023/07/28 06:28:27;;;;;;;11.38;7.68;;;18.80;99.90;;;;;;5008080;28;20040;-84
2023/07/28 06:30:57;;;;;;;15.27;7.65;;;18.80;99.90;;;;;;5006637;28;20117;-84
2023/07/28 06:33:25;;;;;;;15.23;8.25;;;18.60;99.90;;;;;;5008310;28;20076;-84
2023/07/28 06:35:52;;;;;;;12.50;7.80;;;18.60;99.90;;;;;;5006688;28;20067;-84
2023/07/28 06:38:18;;;;;;;13.25;7.47;;;;;;;;;;5025863;28;20404;-84
2023/07/28 06:40:43;;;;;;;14.15;7.40;;;18.70;99.90;;;;;;5006830;28;20132;-84
2023/07/28 06:43:09;;;;;;;11.65;7.43;;;18.60;99.90;;;;;;5018141;28;20057;-84
2023/07/28 06:45:35;;;;;;;12.93;7.88;;;18.70;99.90;;;;;;5006851;28;20045;-84
2023/07/28 06:48:01;;;;;;;15.23;7.72;;;18.70;99.90;;;;;;4983296;28;20041;-84
2023/07/28 06:50:26;;;;;;;14.02;8.05;;;18.70;99.90;;;;;;4995673;28;20400;-84
2023/07/28 06:52:52;;;;;;;10.68;8.02;;;18.80;99.90;;;;;;4992747;28;20096;-84
2023/07/28 06:55:20;;;;;;;17.85;7.97;;;;;;;;;;5006589;28;20403;-84
2023/07/28 06:57:46;;;;;;;15.30;7.70;;;19.00;99.90;;;;;;5007158;28;20061;-84
2023/07/28 07:00:12;;;;;;;9.63;7.13;;;19.10;99.90;;;;;;5005678;28;20050;-84
2023/07/28 07:02:37;;;;;;;12.63;8.00;;;19.10;99.90;;;;;;5003248;28;20049;-84
2023/07/28 07:05:03;;;;;;;17.90;8.82;;;19.30;99.90;;;;;;5003096;28;20057;-84
2023/07/28 07:07:31;;;;;;;13.15;8.05;;;19.30;99.90;;;;;;5004497;28;20505;-84
2023/07/28 07:09:56;;;;;;;15.73;7.35;;;;;;;;;;5000596;28;20124;-84
2023/07/28 07:12:22;;;;;;;12.68;7.43;;;19.30;99.90;;;;;;4994490;28;20128;-84
2023/07/28 07:14:48;;;;;;;12.82;7.32;;;19.50;99.90;;;;;;5018886;28;20041;-84
2023/07/28 07:17:13;;;;;;;14.32;7.07;;;19.40;99.90;;;;;;5014507;28;20034;-84
2023/07/28 07:19:39;;;;;;;14.63;7.18;;;19.50;99.90;;;;;;5023401;28;20041;-84
2023/07/28 07:22:05;;;;;;;20.13;8.50;;;19.60;99.90;;;;;;5023489;28;20124;-84
2023/07/28 07:24:31;;;;;;;14.00;6.90;;;19.60;99.90;;;;;;5006746;28;20136;-84
2023/07/28 07:26:57;;;;;;;14.95;7.05;;;19.50;99.90;;;;;;5005656;28;20120;-85
2023/07/28 07:29:22;;;;;;;9.90;7.10;;;19.80;99.90;;;;;;5007782;28;20076;-84
2023/07/28 07:31:48;;;;;;;10.07;6.78;;;19.90;99.90;;;;;;4990894;28;20388;-84
2023/07/28 07:34:14;;;;;;;15.88;7.90;;;19.80;99.90;;;;;;5025939;28;20037;-85
2023/07/28 07:36:39;;;;;;;15.30;7.40;;;19.80;99.90;;;;;;5001832;28;20038;-84
2023/07/28 07:39:06;;;;;;;15.70;6.78;;;20.00;99.90;;;;;;5013951;28;20038;-84
2023/07/28 07:41:31;;;;;;;14.27;7.55;;;20.40;99.90;;;;;;5002294;28;20045;-84
2023/07/28 07:43:57;;;;;;;10.90;6.13;;;20.40;99.90;;;;;;5007293;28;20043;-84
2023/07/28 07:46:23;;;;;;;10.98;5.95;;;20.50;99.90;;;;;;4982793;28;20137;-84
2023/07/28 07:48:49;;;;;;;15.40;7.38;;;20.40;99.90;;;;;;4989631;28;20049;-84
2023/07/28 07:51:15;;;;;;;10.23;6.75;;;20.20;99.90;;;;;;5019383;28;20041;-84
2023/07/28 07:53:40;;;;;;;10.45;6.68;;;20.20;99.90;;;;;;4989081;28;20045;-84
2023/07/28 07:56:07;;;;;;;9.95;6.80;;;20.80;99.90;;;;;;5000311;28;20478;-84
2023/07/28 07:58:33;;;;;;;13.73;6.13;;;20.30;99.90;;;;;;5020486;28;20061;-84
2023/07/28 08:00:59;;;;;;;10.88;6.18;;;20.70;99.90;;;;;;5006360;28;20045;-84
2023/07/28 08:03:25;;;;;;;11.13;6.47;;;20.70;99.90;;;;;;5007855;28;20414;-84
2023/07/28 08:05:51;;;;;;;11.18;5.78;;;20.80;99.90;;;;;;5003316;28;20518;-84
2023/07/28 08:08:17;;;;;;;10.57;5.78;;;20.60;99.90;;;;;;5006849;28;20053;-84
2023/07/28 08:10:43;;;;;;;10.75;5.88;;;20.70;99.90;;;;;;5004130;28;20052;-84
2023/07/28 08:13:09;;;;;;;11.27;5.72;;;22.80;99.90;;;;;;5007186;28;20037;-84
2023/07/28 08:15:35;;;;;;;11.27;5.38;;;20.90;99.90;;;;;;5007061;28;20042;-84
2023/07/28 08:18:00;;;;;;;12.25;6.05;;;21.00;99.90;;;;;;5006967;28;20088;-84
2023/07/28 08:20:26;;;;;;;13.43;5.95;;;21.10;99.90;;;;;;5019837;28;20121;-84
2023/07/28 08:22:52;;;;;;;16.70;5.70;;;21.10;99.90;;;;;;5018835;28;20037;-85
2023/07/28 08:25:18;;;;;;;13.77;5.78;;;21.00;99.90;;;;;;5013733;28;20052;-85
2023/07/28 08:27:43;;;;;;;11.13;5.30;;;21.00;99.90;;;;;;5003054;28;20100;-85
2023/07/28 08:30:10;;;;;;;9.98;5.38;;;20.90;99.90;;;;;;4994138;28;20462;-84
2023/07/28 08:32:36;;;;;;;14.30;5.53;;;20.70;99.90;;;;;;4984540;28;20037;-85
2023/07/28 08:35:03;;;;;;;10.10;5.65;;;20.70;99.90;;;;;;5006757;28;20534;-85
2023/07/28 08:37:28;;;;;;;10.85;5.85;;;20.80;99.90;;;;;;5006911;28;20157;-85
2023/07/28 08:39:54;;;;;;;15.20;7.18;;;20.70;99.90;;;;;;5007306;28;20570;-85
2023/07/28 08:42:22;;;;;;;12.20;6.70;;;20.60;99.90;;;;;;4989196;28;20071;-85
2023/07/28 08:44:48;;;;;;;11.40;6.18;;;20.60;99.90;;;;;;5007365;28;20045;-85
2023/07/28 08:47:14;;;;;;;12.35;6.30;;;20.50;99.90;;;;;;5006746;28;20041;-86
2023/07/28 08:49:39;;;;;;;9.68;6.07;;;21.80;99.90;;;;;;5007874;28;20132;-86
2023/07/28 08:52:05;;;;;;;10.85;6.72;;;20.50;99.90;;;;;;5023341;28;20124;-85
2023/07/28 08:54:31;;;;;;;10.35;6.32;;;20.50;99.90;;;;;;5005377;28;20450;-85
2023/07/28 08:57:00;;;;;;;9.48;6.70;;;20.50;99.90;;;;;;5002845;28;20045;-85
2023/07/28 08:59:27;;;;;;;11.25;6.53;;;20.80;99.90;;;;;;5011499;28;20073;-85
2023/07/28 09:01:55;;;;;;;9.70;6.60;;;20.60;99.90;;;;;;4983286;28;20112;-85
2023/07/28 09:04:21;;;;;;;9.85;5.45;;;20.80;99.90;;;;;;5010958;28;20854;-85
2023/07/28 09:06:48;;;;;;;11.73;6.47;;;20.90;99.90;;;;;;5021607;28;20495;-85
2023/07/28 09:09:14;;;;;;;11.90;5.40;;;21.10;99.90;;;;;;5010650;28;20042;-85
2023/07/28 09:11:48;;;;;;;13.57;5.65;;;20.80;99.90;;;;;;5028069;28;20041;-85
2023/07/28 09:14:16;;;;;;;9.63;6.28;;;21.10;99.90;;;;;;5005517;28;20069;-85
2023/07/28 09:16:42;;;;;;;9.43;5.38;;;21.10;99.90;;;;;;5027989;28;20045;-85
2023/07/28 09:19:09;;;;;;;9.73;5.60;;;21.30;99.90;;;;;;5027568;28;20128;-85
2023/07/28 09:21:34;;;;;;;7.85;5.50;;;21.30;99.90;;;;;;5028111;28;20041;-85
2023/07/28 09:24:03;;;;;;;5.97;5.10;;;21.40;99.90;;;;;;5008497;28;20414;-85
2023/07/28 09:26:38;;;;;;;7.90;5.05;;;21.70;99.90;;;;;;5010143;28;20067;-85
2023/07/28 09:29:15;;;;;;;10.25;4.38;;;21.70;99.90;;;;;;5004154;28;20064;-85
2023/07/28 09:31:42;;;;;;;4.15;3.63;;;23.60;99.90;;;;;;5010135;28;20053;-85
2023/07/28 09:34:11;;;;;;;5.57;4.40;;;21.20;99.90;;;;;;4989850;28;20034;-85
2023/07/28 09:36:38;;;;;;;7.38;4.47;;;21.50;99.90;;;;;;5009100;28;20042;-85
2023/07/28 09:39:08;;;;;;;5.07;4.05;;;23.40;99.90;;;;;;4983776;28;20045;-85
2023/07/28 09:41:38;;;;;;;7.50;4.13;;;21.40;99.90;;;;;;4998366;28;20388;-85
2023/07/28 09:44:05;;;;;;;6.53;5.00;;;21.30;99.90;;;;;;4997862;28;20041;-85
2023/07/28 09:46:35;;;;;;;10.43;5.53;;;21.90;99.90;;;;;;5006264;28;20454;-85
2023/07/28 09:49:05;;;;;;;8.93;5.88;;;21.20;99.90;;;;;;5023036;28;20049;-85
2023/07/28 09:51:33;;;;;;;8.48;5.90;;;21.50;99.90;;;;;;5008748;28;20045;-85
2023/07/28 09:54:11;;;;;;;11.23;6.43;;;21.50;99.90;;;;;;4993553;28;20419;-85
2023/07/28 09:56:38;;;;;;;9.90;5.85;;;21.90;99.90;;;;;;5022970;28;20063;-85
2023/07/28 09:59:11;;;;;;;10.82;6.10;;;21.90;99.90;;;;;;5026807;28;20041;-85
2023/07/28 10:01:38;;;;;;;11.13;6.47;;;23.30;99.90;;;;;;4993423;28;20045;-85
2023/07/28 10:04:04;;;;;;;8.40;5.32;;;23.60;99.90;;;;;;5026760;28;20037;-85
2023/07/28 10:06:33;;;;;;;6.40;4.63;;;21.90;99.90;;;;;;5027069;28;20503;-85
2023/07/28 10:08:59;;;;;;;11.38;5.28;;;22.20;99.90;;;;;;4980432;28;20096;-85
2023/07/28 10:11:27;;;;;;;8.32;5.25;;;22.10;99.90;;;;;;5006868;28;20112;-85
2023/07/28 10:13:54;;;;;;;10.57;5.15;;;22.00;99.90;;;;;;5003962;28;20041;-85
2023/07/28 10:16:29;;;;;;;5.80;4.35;;;22.50;99.90;;;;;;4986992;28;20545;-85
2023/07/28 10:18:54;;;;;;;15.98;6.97;;;22.10;99.90;;;;;;5025073;28;20056;-85
2023/07/28 10:21:20;;;;;;;10.07;5.20;;;22.10;99.90;;;;;;5006671;28;20037;-85
2023/07/28 10:23:54;;;;;;;6.65;5.70;;;22.10;99.90;;;;;;4987759;28;20042;-85
2023/07/28 10:26:30;;;;;;;;;;;22.10;99.90;;;;;;5003336;28;20045;-85
2023/07/28 10:29:08;;;;;;;12.15;6.25;;;22.20;99.90;;;;;;4998149;28;19926;-85
2023/07/28 10:31:34;;;;;;;11.32;6.10;;;24.00;99.90;;;;;;5022433;28;20066;-85
2023/07/28 10:34:00;;;;;;;9.75;6.97;;;22.30;99.90;;;;;;5002844;28;20457;-85
2023/07/28 10:36:25;;;;;;;9.60;6.00;;;22.20;99.90;;;;;;5007116;28;20087;-85
2023/07/28 10:39:00;;;;;;;9.30;5.88;;;22.50;99.90;;;;;;4979063;28;20070;-85
2023/07/28 10:41:26;;;;;;;10.93;5.78;;;23.90;99.90;;;;;;5026794;28;20415;-86
2023/07/28 10:43:52;;;;;;;11.40;4.75;;;22.60;99.90;;;;;;5009162;28;20404;-85
2023/07/28 10:46:20;;;;;;;5.68;4.68;;;22.40;99.90;;;;;;5004713;28;20418;-85
2023/07/28 10:48:48;;;;;;;9.25;5.97;;;22.70;99.90;;;;;;5020557;28;20045;-85
2023/07/28 10:51:25;;;;;;;8.13;5.30;;;22.20;99.90;;;;;;5008260;28;20045;-85
2023/07/28 10:53:57;;;;;;;9.02;6.20;;;22.40;99.90;;;;;;4988583;28;20188;-86
2023/07/28 10:56:23;;;;;;;9.90;5.25;;;22.40;99.90;;;;;;5026173;28;20510;-86
2023/07/28 10:59:04;;;;;;;9.32;5.75;;;22.50;99.90;;;;;;5002729;28;20046;-85
2023/07/28 11:01:34;;;;;;;11.48;5.80;;;22.40;99.90;;;;;;4984616;28;20046;-86
2023/07/28 11:04:16;;;;;;;10.15;6.25;;;22.60;99.90;;;;;;5026871;28;20407;-85
2023/07/28 11:06:48;;;;;;;8.35;5.80;;;22.60;99.90;;;;;;4990164;28;20095;-86
2023/07/28 11:09:18;;;;;;;11.52;7.07;;;22.70;99.90;;;;;;4992769;28;20566;-85
2023/07/28 11:11:45;;;;;;;11.48;7.05;;;22.50;99.90;;;;;;5025976;28;20522;-86
2023/07/28 11:14:11;;;;;;;8.77;6.15;;;22.60;99.90;;;;;;4992838;28;20033;-86
2023/07/28 11:16:38;;;;;;;7.85;6.70;;;22.80;99.90;;;;;;5007591;28;20037;-87
2023/07/28 11:19:10;;;;;;;9.48;6.47;;;22.60;99.90;;;;;;5008295;28;20037;-86
2023/07/28 11:21:37;;;;;;;11.35;7.10;;;22.60;99.90;;;;;;5008443;28;20072;-86
2023/07/28 11:24:04;;;;;;;9.43;7.10;;;24.70;99.90;;;;;;5024872;28;20041;-85
2023/07/28 11:26:30;;;;;;;9.13;7.00;;;23.10;99.90;;;;;;5005169;28;20077;-85
2023/07/28 11:28:56;;;;;;;12.93;6.63;;;22.90;99.90;;;;;;5020396;28;20093;-85
2023/07/28 11:31:25;;;;;;;10.70;6.35;;;22.90;99.90;;;;;;5007911;28;20037;-85
2023/07/28 11:33:53;;;;;;;11.30;7.82;;;23.00;99.90;;;;;;5025207;28;20495;-85
2023/07/28 11:36:37;;;;;;;11.57;6.45;;;24.90;99.90;;;;;;5026166;28;20052;-85
2023/07/28 11:39:05;;;;;;;12.13;8.23;;;23.20;99.90;;;;;;4984751;28;20053;-85
2023/07/28 11:41:32;;;;;;;11.75;5.75;;;23.30;99.90;;;;;;5008209;28;20041;-85
2023/07/28 11:43:59;;;;;;;10.50;6.70;;;23.30;99.90;;;;;;5026227;28;20044;-85
2023/07/28 11:46:39;;;;;;;7.28;6.35;;;23.30;99.90;;;;;;5007732;28;20050;-85
2023/07/28 11:49:11;;;;;;;8.35;5.97;;;24.90;99.90;;;;;;4996056;28;20053;-86
2023/07/28 11:51:39;;;;;;;10.45;6.50;;;23.30;99.90;;;;;;4988044;28;20673;-85
2023/07/28 11:54:06;;;;;;;11.00;6.82;;;23.10;99.90;;;;;;5003807;28;20037;-85
2023/07/28 11:56:31;;;;;;;11.90;7.40;;;23.00;99.90;;;;;;5007109;28;20046;-85
2023/07/28 11:58:57;;;;;;;11.00;7.75;;;22.90;99.90;;;;;;5025091;28;20048;-85
2023/07/28 12:01:23;;;;;;;17.05;9.13;;;23.20;99.90;;;;;;5008253;28;20037;-85
2023/07/28 12:03:49;;;;;;;14.85;8.43;;;24.40;99.90;;;;;;5025968;28;20053;-85
2023/07/28 12:06:14;;;;;;;14.25;7.60;;;23.10;99.90;;;;;;4982780;28;20079;-86
2023/07/28 12:08:41;;;;;;;11.00;7.78;;;23.00;99.90;;;;;;5025653;28;20045;-85
2023/07/28 12:11:13;;;;;;;12.40;7.07;;;23.00;99.90;;;;;;5004261;28;20049;-86
2023/07/28 12:13:52;;;;;;;10.73;6.00;;;24.40;99.90;;;;;;5004040;28;20329;-85
2023/07/28 12:16:43;;;;;;;10.00;4.65;;;20.60;99.90;;;;;;4988945;28;20037;-86
2023/07/28 12:19:09;;;;;;;10.38;4.70;;;23.10;99.90;;;;;;4984349;28;20766;-85
2023/07/28 12:21:34;;;;;;;8.55;4.78;;;23.10;99.90;;;;;;4984858;28;20045;-86
2023/07/28 12:24:00;;;;;;;6.75;4.85;;;23.20;99.90;;;;;;4986444;28;20048;-86
2023/07/28 12:26:25;;;;;;;8.45;4.97;;;23.20;99.90;;;;;;5006735;28;20084;-85
2023/07/28 12:28:51;;;;;;;5.70;4.20;;;24.30;99.90;;;;;;5000318;28;20049;-86
2023/07/28 12:31:16;;;;;;;10.68;4.78;;;25.30;99.90;;;;;;5003604;28;20038;-85
2023/07/28 12:33:42;;;;;;;6.40;4.25;;;23.40;99.90;;;;;;5009491;28;20076;-86
2023/07/28 12:36:08;;;;;;;14.25;7.72;;;23.40;99.90;;;;;;5001502;28;20038;-85
2023/07/28 12:38:35;;;;;;;7.90;5.53;;;23.20;99.90;;;;;;4995034;28;20608;-85
2023/07/28 12:41:00;;;;;;;8.82;6.05;;;23.50;99.90;;;;;;5006691;28;20120;-85
2023/07/28 12:43:26;;;;;;;11.07;7.13;;;23.50;99.90;;;;;;5027507;28;20128;-86
2023/07/28 12:45:53;;;;;;;13.07;6.90;;;23.50;99.90;;;;;;5027201;28;20080;-86
2023/07/28 12:48:19;;;;;;;12.05;6.90;;;25.00;99.90;;;;;;5027469;28;20038;-85
2023/07/28 12:50:44;;;;;;;10.73;6.53;;;24.90;99.90;;;;;;5026857;28;20262;-86